Tiempo atmosférico en la estación meteorológica de San Cristóbal de La Laguna,Llano de los Loros, Santa Cruz de Tenerife (868 m.)



Fecha
DESCASC
Temp. máxima en grados centígrados (hora)
DESCASC
Temp. mínima en grados centígrados (hora)
DESCASC
Temp. media en grados centígrados
DESCASC
Racha de viento máxima en m/sg (hora)
DESCASC
Velocidad máxima media en intervalos de 10 minutos(hora)
DESCASC
Precipitaciones diarias en mm
DESCASC
Precipitaciones de 00:00 a 06:00 en mm
DESCASC
Precipitaciones de 06:00 a 12:00 en mm
DESCASC
Precipitaciones de 12:00 a 18:00 en mm
DESCASC
Precipitaciones de 18:00 a 24:00 en mm
DESCASC
08-12-2019 14.5 (11:20) 10.7 (05:10) 12.6 11.94 (11:40) 4.72 (11:50) 0.2 0 0.2 0 0
07-12-2019 12.1 (13:20) 10.4 (06:20) 11.3 11.67 (16:10) 4.72 (22:20) 9.4 4.6 4.8 0 0
06-12-2019 13.1 (10:10) 9.9 (04:50) 11.5 17.78 (00:10) 5.83 (03:30) 5 1.2 0 1.4 2.4
05-12-2019 12.4 (00:30) 9 (00:00) 10.7 20.56 (10:20) 8.89 (13:50) 30.2 13.2 5.6 3.4 8
04-12-2019 14.6 (13:00) 10 (06:00) 12.3 13.89 (18:40) 6.94 (18:40) 11.6 0 0.2 0.2 11.2
03-12-2019 14 (13:10) 10.1 (00:00) 12.1 13.33 (04:00) 6.11 (05:20) 10 3.2 4 0 2.8
02-12-2019 12.9 (12:10) 10.6 (00:00) 11.8 14.17 (06:10) 7.78 (06:10) 6.6 0.8 0 0 5.8
01-12-2019 21.1 (11:30) 11.5 (00:00) 16.3 13.06 (23:20) 8.89 (23:20) 0 0 0 0 0
30-11-2019 26 (12:10) 14.9 (00:00) 20.4 10.28 (03:50) 6.11 (04:50) 0 0 0 0 0
29-11-2019 23.3 (12:00) 13.6 (00:00) 18.4 11.39 (05:20) 8.06 (09:50) 0 0 0 0 0
28-11-2019 21.3 (13:10) 10.1 (00:10) 15.7 9.17 (23:10) 5.28 (23:20) 0 0 0 0 0
27-11-2019 21.5 (13:20) 10.3 (00:00) 15.9 9.72 (03:10) 6.11 (03:00) 0.2 0 0.2 0 0
26-11-2019 21.8 (12:50) 11.2 (00:00) 16.5 9.44 (20:20) 5.83 (21:10) 0 0 0 0 0
25-11-2019 20.4 (13:10) 10.9 (06:50) 15.6 9.17 (01:10) 4.17 (17:30) 0 0 0 0 0
24-11-2019 14.8 (12:50) 10.9 (00:00) 12.8 13.61 (18:40) 6.94 (18:30) 8 1.8 6 0.2 0
23-11-2019 15.3 (13:20) 13.4 (00:00) 14.3 11.67 (08:50) 6.94 (09:40) 2.6 1.8 0.6 0.2 0
22-11-2019 18.7 (16:30) 13.4 (00:00) 16.1 11.39 (07:40) 6.11 (07:10) 9 6.6 2.4 0 0
21-11-2019 17.9 (14:30) 11.8 (00:00) 14.8 8.06 (22:50) 3.89 (21:30) 2.6 0.6 0.2 0 1.8
20-11-2019 18.6 (12:10) 10.9 (00:00) 14.8 8.33 (01:10) 4.44 (01:10) 1.2 0 0 0 1.2
19-11-2019 15.9 (13:30) 10.1 (00:00) 13 9.17 (11:30) 6.39 (06:50) 0.4 0.2 0.2 0 0
18-11-2019 17.8 (12:10) 10.7 (00:00) 14.2 10.83 (06:50) 4.44 (21:30) 2.4 0 0.2 2 0.2
17-11-2019 13.5 (12:10) 10.1 (00:00) 11.8 11.11 (09:50) 4.72 (09:50) 11.2 2.4 4.4 3.2 1.2
16-11-2019 13.5 (12:00) 9.7 (00:00) 11.6 16.94 (12:10) 5.56 (07:30) 6.4 3.2 0.6 1.6 1
15-11-2019 12.4 (01:00) 10.4 (00:00) 11.4 14.17 (13:30) 4.72 (00:10) 31.2 3.2 15 9.8 3.2
14-11-2019 13.7 (11:00) 11.7 (00:00) 12.7 13.89 (22:30) 5.83 (04:20) 6.8 0 0.6 1.4 4.8
13-11-2019 14.6 (12:40) 12 (00:00) 13.3 15.83 (03:30) 9.17 (03:00) 0.2 0 0 0.2 0
12-11-2019 14.5 (14:20) 12.2 (00:00) 13.3 18.33 (03:10) 9.72 (00:20) 14.2 1 8 5 0.2
11-11-2019 14.8 (12:00) 11.6 (06:40) 13.2 19.17 (22:50) 9.72 (23:59) 5.6 0.2 0.2 3.2 2

Gráficas

Temp. máximas Temp. mínimas Temp. medias Precipitaciones Rachas de viento máximas Velocidades máximas media en intervalos de 10 minutos

Datos horarios

Fecha y hora oficial Temperatura (ºC) Velocidad del viento (km/h) Dirección del viento Racha (km/h) Dirección de racha Precipitación (mm) Presión (hPa) Tendencia (hPa) Humedad (%)
2019-12-10 23:00:00 12.6 15 Nordeste 42 Nordeste 0.2 -- -- 100
2019-12-10 22:00:00 12 9 Este 33 Este 0 -- -- 100
2019-12-10 21:00:00 11.8 9 Sudoeste 30 Este 0 -- -- 99
2019-12-10 20:00:00 11.5 6 Sudoeste 44 Norte 0 -- -- 98
2019-12-10 19:00:00 11.5 9 Sudeste 23 Norte 0 -- -- 96
2019-12-10 18:00:00 12.3 12 Norte 34 Nordeste 0 -- -- 95
2019-12-10 17:00:00 13.1 9 Noroeste 20 Norte 0 -- -- 88
2019-12-10 16:00:00 15.1 6 Sur 27 Este 0 -- -- 79
2019-12-10 15:00:00 15.2 7 Este 30 Nordeste 0 -- -- 81
2019-12-10 14:00:00 17.3 11 Sudeste 27 Este 0 -- -- 66
2019-12-10 13:00:00 17.9 14 Sudeste 27 Este 0 -- -- 69
2019-12-10 12:00:00 19.8 12 Sudeste 21 Sudeste 0 -- -- 68
2019-12-10 11:00:00 18.3 12 Sudeste 35 Sudeste 0 -- -- 72
2019-12-10 10:00:00 17 16 Sudeste 28 Este 0 -- -- 77
2019-12-10 09:00:00 14.2 15 Sudeste 33 Sudeste 0 -- -- 85
2019-12-10 08:00:00 9.9 15 Sudeste 33 Sur 0 -- -- 100
2019-12-10 07:00:00 9.6 9 Sudeste 36 Sudeste 0 -- -- 99
2019-12-10 06:00:00 10.1 15 Este 39 Este 0 -- -- 97
2019-12-10 05:00:00 9.8 10 Sudeste 32 Este 0 -- -- 96
2019-12-10 04:00:00 10.2 9 Este 40 Nordeste 0 -- -- 97
2019-12-10 03:00:00 10.5 9 Este 39 Este 0 -- -- 96
2019-12-10 02:00:00 10.5 17 Este 42 Nordeste 0 -- -- 96
2019-12-10 01:00:00 10.4 17 Este 38 Este 0 -- -- 96
2019-12-10 00:00:00 10.4 17 Este 35 Este 0 -- -- 97
2019-12-09 23:00:00 10.3 15 Este 34 Este 0 -- -- 96
2019-12-09 22:00:00 10.2 9 Este 30 Este 0 -- -- 96
2019-12-09 21:00:00 10.4 9 Sudeste 32 Sudeste 0 -- -- 96
2019-12-09 20:00:00 10.3 8 Noroeste 29 Sudeste 0 -- -- 96
2019-12-09 19:00:00 10.3 6 Este 23 Este 0 -- -- 95
2019-12-09 18:00:00 11.1 10 Este 29 Este 0 -- -- 92
2019-12-09 17:00:00 12.3 12 Este 27 Este 0 -- -- 83
2019-12-09 16:00:00 13.5 15 Este 27 Sudeste 0 -- -- 84
2019-12-09 15:00:00 18 12 Sudeste 32 Sudeste 0 -- -- 73
2019-12-09 14:00:00 18.1 18 Sudeste 38 Sudeste 0 -- -- 71
2019-12-09 13:00:00 18.1 17 Sudeste 28 Sur 0 -- -- 71
2019-12-09 12:00:00 14.7 13 Sudeste 34 Sudeste 0 -- -- 83
2019-12-09 11:00:00 15.9 14 Sudeste 28 Sudeste 0 -- -- 78
2019-12-09 10:00:00 16.8 20 Sudeste 30 Sudeste 0 -- -- 76
2019-12-09 09:00:00 14.6 18 Sudeste 28 Sudeste 0 -- -- 83
2019-12-09 08:00:00 10.1 16 Sudeste 30 Este 0 -- -- 98
2019-12-09 07:00:00 10.5 12 Sudeste 38 Este 0 -- -- 97
2019-12-09 06:00:00 10.7 22 Este 34 Sudeste 0 -- -- 97
2019-12-09 05:00:00 10.7 21 Este 39 Este 0 -- -- 96
2019-12-09 04:00:00 10.8 7 Sudeste 23 Este 0 -- -- 95
2019-12-09 03:00:00 10.9 8 Este 42 Este 0 -- -- 95
2019-12-09 02:00:00 10.9 14 Nordeste 38 Nordeste 0 -- -- 95
2019-12-09 01:00:00 10.8 15 Este 46 Nordeste 0 -- -- 95
2019-12-09 00:00:00 10.8 17 Este 41 Nordeste 0 -- -- 96
2019-12-08 23:00:00 10.9 15 Nordeste 43 Este 0 -- -- 99
2019-12-08 22:00:00 11.3 11 Nordeste 42 Nordeste 0 -- -- 98
2019-12-08 21:00:00 11.2 13 Nordeste 34 Nordeste 0 -- -- 98
2019-12-08 20:00:00 11.2 14 Nordeste 35 Nordeste 0 -- -- 98
2019-12-08 19:00:00 11.2 10 Nordeste 33 Este 0 -- -- 98
2019-12-08 18:00:00 11.4 8 Norte 26 Oeste 0 -- -- 98
2019-12-08 17:00:00 11.6 10 Nordeste 39 Este 0 -- -- 98
2019-12-08 16:00:00 11.8 9 Nordeste 34 Este 0 -- -- 97
2019-12-08 15:00:00 12.4 9 Nordeste 34 Este 0 -- -- 91
2019-12-08 14:00:00 12.5 9 Este 36 Nordeste 0 -- -- 95
2019-12-08 13:00:00 13.4 12 Nordeste 42 Nordeste 0 -- -- 90
2019-12-08 12:00:00 14.1 12 Nordeste 43 Este 0.2 -- -- 86
2019-12-08 11:00:00 13.2 12 Norte 36 Este 0 -- -- 90
2019-12-08 10:00:00 11.4 8 Noroeste 40 Nordeste 0 -- -- 99
2019-12-08 09:00:00 11.1 13 Norte 31 Nordeste 0 -- -- 97
2019-12-08 08:00:00 10.7 9 Norte 29 Este 0 -- -- 99
2019-12-08 07:00:00 10.9 11 Nordeste 31 Norte 0 -- -- 99
2019-12-08 06:00:00 10.7 8 Nordeste 32 Nordeste 0 -- -- 99
2019-12-08 05:00:00 10.9 8 Nordeste 37 Nordeste 0 -- -- 99
2019-12-08 04:00:00 11 16 Nordeste 37 Nordeste 0 -- -- 99
2019-12-08 03:00:00 11.1 11 Nordeste 30 Este 0 -- -- 98
2019-12-08 02:00:00 11.1 14 Nordeste 35 Este 0 -- -- 99
2019-12-08 01:00:00 11.3 5 Sudeste 33 Norte 0 -- -- 99
2019-12-08 00:00:00 11.3 11 Nordeste 32 Nordeste 0 -- -- 99
2019-12-07 23:00:00 11.3 7 Nordeste 34 Nordeste 0 -- -- 100
2019-12-07 22:00:00 11.4 13 Nordeste 31 Noroeste 0 -- -- 100
2019-12-07 21:00:00 11.4 9 Nordeste 29 Este 0 -- -- 100
2019-12-07 20:00:00 11.3 6 Norte 30 Noroeste 0 -- -- 100
2019-12-07 19:00:00 11.2 9 Noroeste 31 Oeste 0 -- -- 100
2019-12-07 18:00:00 11.2 7 Oeste 38 Noroeste 0 -- -- 100
2019-12-07 17:00:00 11.5 9 Noroeste 42 Oeste 0 -- -- 100
2019-12-07 16:00:00 11.6 6 Noroeste 29 Oeste 0 -- -- 100
2019-12-07 15:00:00 11.7 3 Sudeste 25 Oeste 0 -- -- 100
2019-12-07 14:00:00 11.8 6 Sudoeste 26 Nordeste 0 -- -- 100
2019-12-07 13:00:00 11.9 10 Nordeste 37 Este 0 -- -- 100
2019-12-07 12:00:00 11.7 11 Norte 30 Norte 0 -- -- 100
2019-12-07 11:00:00 11.5 10 Norte 40 Norte 4 -- -- 100
2019-12-07 10:00:00 11.6 9 Noroeste 30 Noroeste 0.2 -- -- 100
2019-12-07 09:00:00 11.3 6 Sur 25 Oeste 0.6 -- -- 100
2019-12-07 08:00:00 10.9 10 Noroeste 36 Noroeste 0 -- -- 100
2019-12-07 07:00:00 10.6 6 Noroeste 29 Norte 0 -- -- 100
2019-12-07 06:00:00 10.6 7 Noroeste 27 Oeste 0.2 -- -- 100
2019-12-07 05:00:00 10.9 9 Noroeste 28 Noroeste 4.2 -- -- 100
2019-12-07 04:00:00 11.1 13 Noroeste 33 Oeste 0 -- -- 100
2019-12-07 03:00:00 11 9 Noroeste 39 Noroeste 0.2 -- -- 100
2019-12-07 02:00:00 10.9 7 Sur 31 Oeste 0 -- -- 100
2019-12-07 01:00:00 10.9 7 Sudoeste 32 Noroeste 0 -- -- 100
2019-12-07 00:00:00 10.8 9 Norte 48 Noroeste 0 -- -- 100
2019-12-06 23:00:00 10.9 14 Noroeste 42 Noroeste 0 -- -- 100
2019-12-06 22:00:00 11 12 Sudoeste 41 Noroeste 0.6 -- -- 100
2019-12-06 21:00:00 10.9 10 Oeste 45 Noroeste 1.2 -- -- 100
2019-12-06 20:00:00 11 9 Oeste 44 Oeste 0.6 -- -- 100
2019-12-06 19:00:00 11.1 12 Norte 52 Norte 0 -- -- 98
2019-12-06 18:00:00 11.2 14 Noroeste 49 Norte 0 -- -- 98
2019-12-06 17:00:00 11.4 17 Norte 50 Noroeste 0 -- -- 98
2019-12-06 16:00:00 11.9 18 Norte 45 Noroeste 0 -- -- 92
2019-12-06 15:00:00 11.4 20 Noroeste 47 Oeste 0 -- -- 100
2019-12-06 14:00:00 11.3 14 Noroeste 44 Noroeste 1.4 -- -- 100
2019-12-06 13:00:00 11.9 13 Sudoeste 38 Oeste 0 -- -- 96
2019-12-06 12:00:00 12.3 14 Noroeste 40 Noroeste 0 -- -- 94
2019-12-06 11:00:00 11.9 15 Noroeste 44 Oeste 0 -- -- 94
2019-12-06 10:00:00 12 10 Norte 42 Noroeste 0 -- -- 93
2019-12-06 09:00:00 10.9 15 Noroeste 42 Noroeste 0 -- -- 96
2019-12-06 08:00:00 10.4 11 Noroeste 48 Oeste 0 -- -- 99
2019-12-06 07:00:00 10.4 13 Noroeste 53 Noroeste 0 -- -- 100
2019-12-06 06:00:00 10 14 Noroeste 48 Noroeste 0 -- -- 100
2019-12-06 05:00:00 9.9 10 Noroeste 51 Noroeste 0 -- -- 100
2019-12-06 04:00:00 10.1 19 Noroeste 54 Oeste 0 -- -- 100
2019-12-06 03:00:00 10.4 15 Noroeste 45 Norte 0 -- -- 100
2019-12-06 02:00:00 10.4 13 Noroeste 44 Noroeste 0 -- -- 100
2019-12-06 01:00:00 10.6 20 Norte 64 Norte 1.2 -- -- 100
2019-12-06 00:00:00 10.5 22 Noroeste 55 Norte 0 -- -- 100
2019-12-05 23:00:00 10.6 22 Noroeste 50 Noroeste 4.8 -- -- 100
2019-12-05 22:00:00 10.4 23 Noroeste 59 Noroeste 0.2 -- -- 100
2019-12-05 21:00:00 10.3 16 Noroeste 52 Noroeste 0.2 -- -- 100
2019-12-05 20:00:00 10.1 19 Noroeste 48 Noroeste 0.2 -- -- 100
2019-12-05 19:00:00 9 17 Noroeste 50 Sudoeste 2.6 -- -- 99
2019-12-05 18:00:00 10.4 23 Noroeste 57 Noroeste 0 -- -- 95
2019-12-05 17:00:00 10.4 25 Noroeste 59 Noroeste 0 -- -- 92
2019-12-05 16:00:00 10.5 22 Noroeste 72 Noroeste 0 -- -- 94
2019-12-05 15:00:00 10.6 31 Noroeste 63 Noroeste 0.2 -- -- 93
2019-12-05 14:00:00 10.2 27 Norte 63 Noroeste 0.8 -- -- 100
2019-12-05 13:00:00 9.6 21 Noroeste 54 Noroeste 2.4 -- -- 100
2019-12-05 12:00:00 9.6 15 Norte 62 Noroeste 4.4 -- -- 99
2019-12-05 11:00:00 10.6 31 Norte 74 Noroeste 0 -- -- 100
2019-12-05 10:00:00 9.9 25 Noroeste 60 Noroeste 0 -- -- 100
2019-12-05 09:00:00 10 25 Noroeste 62 Noroeste 1.2 -- -- 100
2019-12-05 08:00:00 10 27 Norte 61 Noroeste 0 -- -- 92
2019-12-05 07:00:00 9.7 30 Noroeste 64 Noroeste 0 -- -- 92
2019-12-05 06:00:00 9.6 19 Norte 51 Noroeste 0 -- -- 95
2019-12-05 05:00:00 9.5 19 Norte 57 Noroeste 0.2 -- -- 99
2019-12-05 04:00:00 10.2 27 Norte 60 Norte 0 -- -- 100
2019-12-05 03:00:00 9.6 32 Noroeste 65 Noroeste 1.8 -- -- 100
2019-12-05 02:00:00 10.3 23 Noroeste 65 Noroeste 5 -- -- 100
2019-12-05 01:00:00 11.9 18 Noroeste 59 Norte 6.2 -- -- 100
2019-12-05 00:00:00 11.8 18 Noroeste 43 Noroeste 10.2 -- -- 100
2019-12-04 23:00:00 11.2 14 Noroeste 33 Noroeste 0.2 -- -- 100
2019-12-04 22:00:00 11.4 18 Noroeste 43 Noroeste 0 -- -- 100
2019-12-04 21:00:00 11.6 21 Noroeste 43 Noroeste 0.8 -- -- 100
2019-12-04 20:00:00 11.6 17 Noroeste 43 Norte 0 -- -- 99
2019-12-04 19:00:00 11.5 24 Noroeste 50 Noroeste 0 -- -- 97
2019-12-04 18:00:00 11.5 18 Noroeste 37 Noroeste 0 -- -- 96
2019-12-04 17:00:00 11.6 20 Noroeste 47 Noroeste 0 -- -- 95
2019-12-04 16:00:00 11.7 21 Noroeste 37 Noroeste 0 -- -- 96
2019-12-04 15:00:00 13.3 11 Noroeste 36 Oeste 0.2 -- -- 93
2019-12-04 14:00:00 11.6 14 Noroeste 30 Noroeste 0 -- -- 97
2019-12-04 13:00:00 14.6 13 Noroeste 32 Noroeste 0 -- -- 80
2019-12-04 12:00:00 14 14 Norte 35 Noroeste 0.2 -- -- 79
2019-12-04 11:00:00 12.4 15 Noroeste 31 Noroeste 0 -- -- 88
2019-12-04 10:00:00 10.9 8 Noroeste 21 Noroeste 0 -- -- 95
2019-12-04 09:00:00 10.8 4 Oeste 16 Noroeste 0 -- -- 98
2019-12-04 08:00:00 10.4 8 Noroeste 27 Noroeste 0 -- -- 99
2019-12-04 07:00:00 10.1 10 Noroeste 20 Noroeste 0 -- -- 99
2019-12-04 06:00:00 10 5 Norte 27 Noroeste 0 -- -- 98
2019-12-04 05:00:00 10.1 8 Norte 29 Noroeste 0 -- -- 98
2019-12-04 04:00:00 10.2 11 Noroeste 33 Noroeste 0 -- -- 100
2019-12-04 03:00:00 10.6 6 Noroeste 34 Noroeste 0 -- -- 100
2019-12-04 02:00:00 10.4 7 Noroeste 28 Noroeste 0 -- -- 100
2019-12-04 01:00:00 10.6 3 Sudoeste 24 Noroeste 0 -- -- 100
2019-12-04 00:00:00 10.7 8 Norte 28 Noroeste 0 -- -- 100
2019-12-03 23:00:00 10.6 8 Noroeste 34 Noroeste 1 -- -- 100
2019-12-03 22:00:00 10.4 9 Noroeste 37 Noroeste 1.8 -- -- 99
2019-12-03 21:00:00 11 18 Noroeste 35 Noroeste 0 -- -- 95
2019-12-03 20:00:00 11 13 Noroeste 33 Noroeste 0 -- -- 96
2019-12-03 19:00:00 10.8 12 Norte 36 Noroeste 0 -- -- 94
2019-12-03 18:00:00 11.1 6 Noroeste 27 Norte 0 -- -- 95
2019-12-03 17:00:00 11.8 13 Noroeste 30 Norte 0 -- -- 89
2019-12-03 16:00:00 11.9 11 Norte 35 Nordeste 0 -- -- 92
2019-12-03 15:00:00 12.8 10 Noroeste 31 Norte 0 -- -- 86
2019-12-03 14:00:00 11.6 11 Noroeste 45 Noroeste 0 -- -- 93
2019-12-03 13:00:00 13.8 10 Norte 37 Norte 0 -- -- 79
2019-12-03 12:00:00 12.4 9 Norte 32 Norte 0 -- -- 99
2019-12-03 11:00:00 11 10 Norte 42 Noroeste 0 -- -- 100
2019-12-03 10:00:00 10.7 13 Norte 46 Noroeste 0 -- -- 100
2019-12-03 09:00:00 10.6 18 Noroeste 36 Norte 0.2 -- -- 100
2019-12-03 08:00:00 10.4 15 Noroeste 40 Noroeste 1.4 -- -- 100
2019-12-03 07:00:00 10.7 8 Oeste 43 Norte 2.4 -- -- 100
2019-12-03 06:00:00 10.7 19 Noroeste 45 Noroeste 0 -- -- 100
2019-12-03 05:00:00 10.7 20 Noroeste 42 Noroeste 0.2 -- -- 100
2019-12-03 04:00:00 10.8 16 Noroeste 48 Noroeste 0 -- -- 100
2019-12-03 03:00:00 10.3 7 Norte 48 Noroeste 1.6 -- -- 100
2019-12-03 02:00:00 10.9 16 Noroeste 45 Noroeste 0.2 -- -- 100
2019-12-03 01:00:00 10.5 18 Noroeste 44 Noroeste 1.2 -- -- 100
2019-12-03 00:00:00 10.7 14 Norte 41 Norte 3.8 -- -- 100
2019-12-02 23:00:00 11 20 Noroeste 41 Noroeste 1.8 -- -- 100
2019-12-02 22:00:00 10.6 18 Norte 44 Noroeste 0.2 -- -- 98
2019-12-02 21:00:00 11.3 13 Noroeste 45 Noroeste 0 -- -- 100
2019-12-02 20:00:00 11.3 15 Noroeste 36 Noroeste 0 -- -- 100
2019-12-02 19:00:00 11.7 17 Noroeste 33 Noroeste 0 -- -- 99
2019-12-02 18:00:00 11.7 12 Noroeste 36 Norte 0 -- -- 97
2019-12-02 17:00:00 11.7 17 Noroeste 32 Noroeste 0 -- -- 94
2019-12-02 16:00:00 11.9 14 Norte 36 Noroeste 0 -- -- 92
2019-12-02 15:00:00 12 11 Norte 34 Norte 0 -- -- 90
2019-12-02 14:00:00 12.2 14 Noroeste 31 Noroeste 0 -- -- 99
2019-12-02 13:00:00 12.5 11 Noroeste 34 Noroeste 0 -- -- 98
2019-12-02 12:00:00 12.4 17 Noroeste 40 Noroeste 0 -- -- 100
2019-12-02 11:00:00 12.3 15 Noroeste 41 Norte 0 -- -- 100
2019-12-02 10:00:00 12.2 16 Noroeste 44 Noroeste 0 -- -- 100
2019-12-02 09:00:00 12.1 22 Noroeste 43 Noroeste 0 -- -- 100
2019-12-02 08:00:00 12.4 22 Noroeste 48 Noroeste 0 -- -- 100
2019-12-02 07:00:00 11.3 23 Noroeste 51 Noroeste 0 -- -- 100
2019-12-02 06:00:00 11.9 26 Noroeste 49 Norte 0 -- -- 100
2019-12-02 05:00:00 11.9 19 Noroeste 41 Noroeste 0 -- -- 99
2019-12-02 04:00:00 12.3 10 Noroeste 39 Noroeste 0.8 -- -- 100
2019-12-02 03:00:00 12.6 17 Noroeste 46 Noroeste 0 -- -- 99
2019-12-02 02:00:00 12.2 22 Noroeste 45 Noroeste 0 -- -- 98
2019-12-02 01:00:00 11.9 24 Noroeste 48 Noroeste 0 -- -- 97
2019-12-02 00:00:00 12.1 27 Noroeste 47 Norte 0 -- -- 97
2019-12-01 23:00:00 11.8 31 Norte 44 Noroeste 0 -- -- 95
2019-12-01 22:00:00 11.7 25 Noroeste 40 Oeste 0 -- -- 93
2019-12-01 21:00:00 11.9 13 Norte 30 Nordeste 0 -- -- 93
2019-12-01 20:00:00 11.8 15 Norte 34 Nordeste 0 -- -- 95
2019-12-01 19:00:00 12.1 19 Norte 36 Nordeste 0 -- -- 95
2019-12-01 18:00:00 12.6 13 Norte 37 Norte 0 -- -- 94
2019-12-01 17:00:00 13.5 21 Norte 38 Norte 0 -- -- 89
2019-12-01 16:00:00 14.3 17 Norte 36 Norte 0 -- -- 84
2019-12-01 15:00:00 16 13 Norte 25 Norte 0 -- -- 72
2019-12-01 14:00:00 18.8 6 Oeste 21 Norte 0 -- -- 49
2019-12-01 13:00:00 17.1 9 Norte 23 Norte 0 -- -- 72
2019-12-01 12:00:00 18.2 6 Norte 17 Norte 0 -- -- 65
2019-12-01 11:00:00 18.9 5 Sudoeste 15 Sudeste 0 -- -- 66
2019-12-01 10:00:00 19.8 4 Sudeste 12 Sudeste 0 -- -- 66
2019-12-01 09:00:00 16.8 5 Nordeste 17 Sudeste 0 -- -- 69
2019-12-01 08:00:00 11.7 2 Sudoeste 12 Este 0 -- -- 86
2019-12-01 07:00:00 12.6 2 Nordeste 16 Este 0 -- -- 74
2019-12-01 06:00:00 14 4 Sudeste 15 Nordeste 0 -- -- 55
2019-12-01 05:00:00 15.5 5 Este 15 Nordeste 0 -- -- 41
2019-12-01 04:00:00 17.9 7 Nordeste 14 Nordeste 0 -- -- 28
2019-12-01 03:00:00 15.1 6 Este 15 Este 0 -- -- 38
2019-12-01 02:00:00 14.2 4 Noroeste 17 Este 0 -- -- 39
2019-12-01 01:00:00 17 12 Este 21 Este 0 -- -- 34
2019-12-01 00:00:00 17.6 10 Este 18 Nordeste 0 -- -- 29
2019-11-30 23:00:00 18.3 9 Este 17 Nordeste 0 -- -- 28
2019-11-30 22:00:00 16.7 8 Este 17 Este 0 -- -- 35
2019-11-30 21:00:00 16.4 12 Este 20 Sudeste 0 -- -- 38
2019-11-30 20:00:00 16.6 12 Este 16 Este 0 -- -- 41
2019-11-30 19:00:00 15.4 5 Este 8 Este 0 -- -- 49
2019-11-30 18:00:00 15.3 3 Noroeste 8 Este 0 -- -- 56
2019-11-30 17:00:00 17.8 5 Este 13 Sudeste 0 -- -- 74
2019-11-30 16:00:00 20.8 8 Sudeste 15 Sudeste 0 -- -- 58
2019-11-30 15:00:00 22.5 12 Sudeste 20 Sudeste 0 -- -- 48
2019-11-30 14:00:00 24.3 15 Sudeste 22 Sudeste 0 -- -- 40
2019-11-30 13:00:00 25.8 15 Sudeste 22 Sudeste 0 -- -- 36
2019-11-30 12:00:00 25.7 16 Sudeste 28 Sudeste 0 -- -- 39
2019-11-30 11:00:00 25.9 16 Sudeste 28 Sudeste 0 -- -- 35
2019-11-30 10:00:00 24 19 Sudeste 26 Sudeste 0 -- -- 33
2019-11-30 09:00:00 20.7 15 Sudeste 29 Este 0 -- -- 39
2019-11-30 08:00:00 16.2 15 Sudeste 26 Este 0 -- -- 46
2019-11-30 07:00:00 15.6 18 Sudeste 33 Este 0 -- -- 43
2019-11-30 06:00:00 15.9 20 Sudeste 31 Sudeste 0 -- -- 42
2019-11-30 05:00:00 16.4 20 Sudeste 33 Este 0 -- -- 42
2019-11-30 04:00:00 16.8 18 Sudeste 37 Este 0 -- -- 43
2019-11-30 03:00:00 17.4 18 Este 31 Este 0 -- -- 38
2019-11-30 02:00:00 16.6 19 Sudeste 28 Sudeste 0 -- -- 37
2019-11-30 01:00:00 17.4 14 Este 22 Sudeste 0 -- -- 41
2019-11-30 00:00:00 16.7 14 Sudeste 20 Sudeste 0 -- -- 43
2019-11-29 23:00:00 17.3 10 Sudeste 21 Sudeste 0 -- -- 40
2019-11-29 22:00:00 17.7 10 Sur 21 Sudeste 0 -- -- 38
2019-11-29 21:00:00 17.2 13 Sur 27 Sur 0 -- -- 43
2019-11-29 20:00:00 17.4 14 Sur 26 Sudeste 0 -- -- 43
2019-11-29 19:00:00 17.6 15 Sur 31 Sur 0 -- -- 44
2019-11-29 18:00:00 17.7 17 Sur 28 Sur 0 -- -- 46
2019-11-29 17:00:00 18.7 12 Sur 28 Sur 0 -- -- 48
2019-11-29 16:00:00 21.2 12 Sur 26 Sur 0 -- -- 49
2019-11-29 15:00:00 22.6 9 Sur 24 Sur 0 -- -- 45
2019-11-29 14:00:00 22.4 13 Sur 24 Sur 0 -- -- 48
2019-11-29 13:00:00 23 19 Sudeste 32 Sur 0 -- -- 50
2019-11-29 12:00:00 23.3 21 Sudeste 34 Sudeste 0 -- -- 54
2019-11-29 11:00:00 22.5 21 Sudeste 39 Sudeste 0 -- -- 53
2019-11-29 10:00:00 20.6 29 Sudeste 41 Sudeste 0 -- -- 46
2019-11-29 09:00:00 18.5 22 Sudeste 39 Este 0 -- -- 52
2019-11-29 08:00:00 14.7 26 Este 41 Este 0 -- -- 57
2019-11-29 07:00:00 13.6 24 Sudeste 39 Este 0 -- -- 61
2019-11-29 06:00:00 15 27 Este 41 Este 0 -- -- 57
2019-11-29 05:00:00 14.7 22 Este 39 Este 0 -- -- 60
2019-11-29 04:00:00 14.7 22 Este 35 Sudeste 0 -- -- 63
2019-11-29 03:00:00 13.8 15 Este 28 Este 0 -- -- 74
2019-11-29 02:00:00 14.2 14 Este 31 Este 0 -- -- 75
2019-11-29 01:00:00 14.8 18 Este 29 Este 0 -- -- 69
2019-11-29 00:00:00 15.6 17 Este 33 Sudeste 0 -- -- 62
2019-11-28 23:00:00 15.8 17 Este 31 Sudeste 0 -- -- 55
2019-11-28 22:00:00 15.7 15 Este 25 Este 0 -- -- 56
2019-11-28 21:00:00 16.1 16 Este 26 Este 0 -- -- 52
2019-11-28 20:00:00 15 12 Este 23 Este 0 -- -- 61
2019-11-28 19:00:00 14.4 5 Sudeste 17 Este 0 -- -- 55
2019-11-28 18:00:00 14.6 9 Este 21 Este 0 -- -- 68
2019-11-28 17:00:00 16 10 Este 17 Este 0 -- -- 67
2019-11-28 16:00:00 17.6 11 Sudeste 18 Este 0 -- -- 77
2019-11-28 15:00:00 20.3 10 Sudeste 17 Sudeste 0 -- -- 67
2019-11-28 14:00:00 20.6 11 Sudeste 19 Sudeste 0 -- -- 69
2019-11-28 13:00:00 21.1 12 Sudeste 21 Sudeste 0 -- -- 71
2019-11-28 12:00:00 20 12 Sudeste 21 Sudeste 0 -- -- 76
2019-11-28 11:00:00 19.7 15 Sudeste 21 Sudeste 0 -- -- 78
2019-11-28 10:00:00 14.2 13 Sudeste 19 Sudeste 0 -- -- 95
2019-11-28 09:00:00 12.7 11 Sudeste 15 Sudeste 0 -- -- 100
2019-11-28 08:00:00 11.4 5 Sudeste 14 Sudeste 0 -- -- 100
2019-11-28 07:00:00 10.9 4 Sur 14 Este 0 -- -- 99
2019-11-28 06:00:00 10.7 3 Sudeste 10 Este 0 -- -- 97
2019-11-28 05:00:00 11.7 4 Nordeste 12 Este 0 -- -- 88
2019-11-28 04:00:00 11.4 2 Sudeste 15 Nordeste 0 -- -- 93
2019-11-28 03:00:00 11.1 2 Sudeste 12 Nordeste 0 -- -- 96
2019-11-28 02:00:00 11.1 4 Nordeste 8 Este 0 -- -- 98
2019-11-28 01:00:00 11.4 4 Sudeste 13 Este 0 -- -- 94
2019-11-28 00:00:00 10.3 0 Calma 10 Nordeste 0 -- -- 98
2019-11-27 23:00:00 10.6 4 Nordeste 9 Nordeste 0 -- -- 97
2019-11-27 22:00:00 11 3 Este 9 Este 0 -- -- 95
2019-11-27 21:00:00 11 5 Este 11 Este 0 -- -- 94
2019-11-27 20:00:00 11.4 5 Nordeste 14 Norte 0 -- -- 93
2019-11-27 19:00:00 12.3 6 Nordeste 18 Norte 0 -- -- 92
2019-11-27 18:00:00 13.3 9 Norte 18 Noroeste 0 -- -- 91
2019-11-27 17:00:00 16.7 3 Sudeste 13 Sudeste 0 -- -- 83
2019-11-27 16:00:00 18.8 9 Sudeste 21 Sudoeste 0 -- -- 77
2019-11-27 15:00:00 18.7 5 Oeste 14 Oeste 0 -- -- 74
2019-11-27 14:00:00 20.4 6 Sur 15 Sur 0 -- -- 71
2019-11-27 13:00:00 20.2 6 Sur 18 Este 0 -- -- 66
2019-11-27 05:00:00 11.6 16 Norte 33 Norte 0 -- -- 98
2019-11-27 04:00:00 11.7 18 Norte 35 Norte 0 -- -- 98
2019-11-27 03:00:00 11.9 22 Norte 33 Norte 0 -- -- 100
2019-11-27 02:00:00 12.4 13 Nordeste 26 Nordeste 0 -- -- 98
2019-11-27 01:00:00 12.2 11 Nordeste 29 Norte 0 -- -- 100
2019-11-27 00:00:00 12.4 8 Norte 22 Nordeste 0 -- -- 100
2019-11-26 23:00:00 12.2 4 Sudoeste 27 Nordeste 0 -- -- 100
2019-11-26 22:00:00 12.6 12 Norte 33 Norte 0 -- -- 100
2019-11-26 21:00:00 12.3 20 Norte 34 Noroeste 0 -- -- 100
2019-11-26 20:00:00 12.3 19 Norte 33 Norte 0 -- -- 100
2019-11-26 19:00:00 12.5 18 Norte 30 Norte 0 -- -- 100
2019-11-26 18:00:00 12.5 15 Norte 31 Norte 0 -- -- 100
2019-11-26 17:00:00 13 14 Norte 31 Norte 0 -- -- 99
2019-11-26 16:00:00 13.5 18 Norte 33 Noroeste 0 -- -- 99
2019-11-26 15:00:00 14.3 17 Norte 31 Noroeste 0 -- -- 95
2019-11-26 14:00:00 14.5 9 Norte 19 Norte 0 -- -- 96
2019-11-26 13:00:00 20.9 5 Sur 14 Sudeste 0 -- -- 69
2019-11-26 12:00:00 20.7 8 Sudeste 19 Sudeste 0 -- -- 65
2019-11-26 11:00:00 17.2 10 Sudeste 18 Sudeste 0 -- -- 87
2019-11-26 10:00:00 14.3 5 Sudeste 23 Este 0 -- -- 97
2019-11-26 09:00:00 13.4 12 Este 22 Este 0 -- -- 97
2019-11-26 08:00:00 12.1 3 Sudeste 27 Este 0 -- -- 99
2019-11-26 07:00:00 12.1 7 Este 26 Nordeste 0 -- -- 99
2019-11-26 06:00:00 11.9 7 Norte 19 Nordeste 0 -- -- 98
2019-11-26 05:00:00 12.1 10 Norte 32 Norte 0 -- -- 97
2019-11-26 04:00:00 12.3 10 Norte 28 Nordeste 0 -- -- 96
2019-11-26 03:00:00 12.3 7 Este 32 Nordeste 0 -- -- 98
2019-11-26 02:00:00 11.8 5 Noroeste 22 Nordeste 0 -- -- 99
2019-11-26 01:00:00 12.1 5 Norte 27 Norte 0 -- -- 92
2019-11-26 00:00:00 12 12 Norte 26 Nordeste 0 -- -- 99
2019-11-25 23:00:00 12.3 6 Nordeste 25 Este 0 -- -- 99
2019-11-25 22:00:00 12 8 Este 28 Este 0 -- -- 97
2019-11-25 21:00:00 12.3 8 Este 21 Nordeste 0 -- -- 97
2019-11-25 20:00:00 12.2 9 Norte 22 Norte 0 -- -- 97
2019-11-25 19:00:00 12.6 15 Norte 27 Norte 0 -- -- 99
2019-11-25 18:00:00 12.4 14 Norte 30 Norte 0 -- -- 98
2019-11-25 17:00:00 13.2 5 Norte 24 Nordeste 0 -- -- 94
2019-11-25 16:00:00 14.7 10 Norte 22 Norte 0 -- -- 83
2019-11-25 15:00:00 14.6 7 Norte 16 Norte 0 -- -- 84
2019-11-25 14:00:00 14.9 9 Norte 18 Noroeste 0 -- -- 83
2019-11-25 13:00:00 19.7 8 Sudeste 18 Este 0 -- -- 68
2019-11-25 12:00:00 17 7 Sudeste 22 Sudeste 0 -- -- 75
2019-11-25 11:00:00 18.4 8 Sudeste 24 Sudeste 0 -- -- 71
2019-11-25 10:00:00 16.6 8 Este 22 Sudeste 0 -- -- 74
2019-11-25 09:00:00 13.6 6 Nordeste 29 Este 0 -- -- 87
2019-11-25 08:00:00 11.3 11 Norte 32 Norte 0 -- -- 91
2019-11-25 07:00:00 10.9 11 Nordeste 31 Norte 0 -- -- 96
2019-11-25 06:00:00 11.8 9 Nordeste 29 Este 0 -- -- 98
2019-11-25 05:00:00 11.9 9 Norte 26 Nordeste 0 -- -- 97
2019-11-25 04:00:00 11.7 9 Norte 27 Nordeste 0 -- -- 95
2019-11-25 03:00:00 11.8 10 Nordeste 24 Este 0 -- -- 98
2019-11-25 02:00:00 11.7 7 Norte 33 Este 0 -- -- 95
2019-11-25 01:00:00 11.9 8 Norte 27 Nordeste 0 -- -- 97
2019-11-25 00:00:00 11.5 9 Norte 30 Nordeste 0 -- -- 97
2019-11-24 23:00:00 11 6 Norte 26 Oeste 0 -- -- 97
2019-11-24 22:00:00 11.4 8 Noroeste 36 Noroeste 0 -- -- 98
2019-11-24 21:00:00 12.3 12 Norte 40 Norte 0 -- -- 100
2019-11-24 20:00:00 12.3 18 Noroeste 42 Oeste 0 -- -- 100
2019-11-24 19:00:00 12.5 21 Noroeste 49 Noroeste 0 -- -- 100
2019-11-24 18:00:00 12.4 18 Noroeste 45 Noroeste 0 -- -- 99
2019-11-24 17:00:00 12.8 24 Noroeste 46 Noroeste 0 -- -- 98
2019-11-24 16:00:00 14.2 13 Noroeste 37 Noroeste 0 -- -- 95
2019-11-24 15:00:00 14.5 10 Noroeste 31 Este 0 -- -- 99
2019-11-24 14:00:00 13.9 7 Noroeste 24 Oeste 0.2 -- -- 100
2019-11-24 13:00:00 14.4 3 Oeste 24 Este 0 -- -- 98
2019-11-24 12:00:00 14.1 6 Oeste 27 Norte 0.8 -- -- 100
2019-11-24 11:00:00 14.5 4 Noroeste 26 Norte 2 -- -- 100
2019-11-24 10:00:00 13.9 5 Noroeste 29 Noroeste 2.4 -- -- 100
2019-11-24 09:00:00 13.4 13 Noroeste 34 Noroeste 0.6 -- -- 100
2019-11-24 08:00:00 13.2 9 Norte 35 Noroeste 0.2 -- -- 100
2019-11-24 07:00:00 12.5 14 Norte 34 Norte 0 -- -- 100
2019-11-24 06:00:00 13 20 Noroeste 41 Noroeste 0.4 -- -- 100
2019-11-24 05:00:00 13.3 17 Noroeste 33 Noroeste 1.4 -- -- 100
2019-11-24 04:00:00 13.2 8 Noroeste 34 Noroeste 0 -- -- 100
2019-11-24 03:00:00 13.1 9 Noroeste 33 Norte 0 -- -- 100
2019-11-24 02:00:00 13.2 12 Noroeste 37 Norte 0 -- -- 100
2019-11-24 01:00:00 13.3 13 Noroeste 37 Norte 0 -- -- 100
2019-11-24 00:00:00 13.4 9 Noroeste 33 Noroeste 0 -- -- 100
2019-11-23 23:00:00 13.6 6 Sudoeste 29 Noroeste 0 -- -- 100
2019-11-23 22:00:00 13.6 6 Noroeste 26 Oeste 0 -- -- 100
2019-11-23 21:00:00 13.7 5 Oeste 21 Oeste 0 -- -- 100
2019-11-23 20:00:00 13.8 8 Noroeste 24 Nordeste 0 -- -- 100
2019-11-23 19:00:00 13.6 9 Noroeste 26 Noroeste 0 -- -- 100
2019-11-23 18:00:00 14.3 8 Norte 24 Oeste 0.2 -- -- 100
2019-11-23 17:00:00 14.6 5 Oeste 36 Noroeste 0 -- -- 100
2019-11-23 16:00:00 14.8 12 Noroeste 35 Norte 0 -- -- 100
2019-11-23 15:00:00 14.9 14 Norte 37 Noroeste 0 -- -- 100
2019-11-23 14:00:00 14.8 10 Norte 39 Noroeste 0 -- -- 100
2019-11-23 13:00:00 14.9 17 Noroeste 39 Noroeste 0 -- -- 100
2019-11-23 12:00:00 14.4 15 Noroeste 39 Noroeste 0 -- -- 100
2019-11-23 11:00:00 14.4 17 Noroeste 42 Noroeste 0 -- -- 100
2019-11-23 10:00:00 14.6 22 Noroeste 41 Noroeste 0 -- -- 100
2019-11-23 09:00:00 14.1 22 Noroeste 42 Noroeste 0 -- -- 100
2019-11-23 08:00:00 14.1 19 Noroeste 40 Noroeste 0 -- -- 100
2019-11-23 07:00:00 14.2 19 Noroeste 41 Noroeste 0.6 -- -- 100
2019-11-23 06:00:00 14.6 20 Noroeste 40 Noroeste 1 -- -- 100
2019-11-23 05:00:00 14.5 17 Noroeste 41 Noroeste 0 -- -- 100
2019-11-23 04:00:00 14.7 23 Noroeste 37 Noroeste 0.6 -- -- 100
2019-11-23 03:00:00 14.7 17 Noroeste 32 Noroeste 0.2 -- -- 100
2019-11-23 02:00:00 14.7 12 Noroeste 35 Oeste 0 -- -- 100
2019-11-23 01:00:00 14.6 12 Noroeste 30 Oeste 0 -- -- 100
2019-11-23 00:00:00 14.5 18 Noroeste 33 Oeste 0 -- -- 100
2019-11-22 23:00:00 14.3 18 Noroeste 34 Noroeste 0 -- -- 100
2019-11-22 22:00:00 14.3 16 Noroeste 33 Noroeste 0 -- -- 100
2019-11-22 21:00:00 13.8 10 Noroeste 28 Noroeste 0 -- -- 99
2019-11-22 20:00:00 13.4 15 Noroeste 26 Noroeste 0 -- -- 99
2019-11-22 19:00:00 14.1 11 Noroeste 17 Noroeste 0 -- -- 95
2019-11-22 18:00:00 15.2 5 Noroeste 14 Oeste 0 -- -- 92
2019-11-22 17:00:00 16.5 5 Oeste 16 Oeste 0 -- -- 84
2019-11-22 16:00:00 18.5 3 Oeste 19 Oeste 0 -- -- 79
2019-11-22 15:00:00 18.3 5 Oeste 21 Noroeste 0 -- -- 78
2019-11-22 14:00:00 17.2 14 Noroeste 27 Noroeste 0 -- -- 80
2019-11-22 13:00:00 17.2 8 Noroeste 19 Oeste 0 -- -- 84
2019-11-22 12:00:00 16.2 9 Oeste 26 Noroeste 0 -- -- 99
2019-11-22 11:00:00 14.9 16 Noroeste 36 Noroeste 0 -- -- 99
2019-11-22 10:00:00 14 14 Noroeste 38 Norte 0 -- -- 100
2019-11-22 09:00:00 13.9 17 Noroeste 36 Noroeste 0.4 -- -- 100
2019-11-22 08:00:00 13.8 20 Noroeste 41 Noroeste 1.2 -- -- 100
2019-11-22 07:00:00 14 22 Noroeste 37 Noroeste 0.8 -- -- 100
2019-11-22 06:00:00 14.1 16 Noroeste 36 Noroeste 0.6 -- -- 100
2019-11-22 05:00:00 14 18 Noroeste 31 Noroeste 0.8 -- -- 100
2019-11-22 04:00:00 14.3 19 Noroeste 31 Noroeste 0.8 -- -- 100
2019-11-22 03:00:00 14.2 13 Oeste 29 Noroeste 1.4 -- -- 100
2019-11-22 02:00:00 14.8 10 Oeste 30 Noroeste 2.4 -- -- 100
2019-11-22 01:00:00 14.8 10 Noroeste 25 Noroeste 0.6 -- -- 100
2019-11-22 00:00:00 14.7 10 Oeste 25 Oeste 0.6 -- -- 100
2019-11-21 23:00:00 14.2 10 Oeste 29 Noroeste 0.6 -- -- 100
2019-11-21 22:00:00 14.4 10 Oeste 28 Oeste 0.6 -- -- 100
2019-11-21 21:00:00 14.4 9 Noroeste 24 Oeste 0 -- -- 99
2019-11-21 20:00:00 14 9 Oeste 24 Oeste 0 -- -- 94
2019-11-21 19:00:00 13.8 9 Noroeste 25 Noroeste 0 -- -- 97
2019-11-21 18:00:00 14.3 6 Noroeste 23 Noroeste 0 -- -- 87
2019-11-21 17:00:00 16.3 6 Norte 17 Oeste 0 -- -- 80
2019-11-21 16:00:00 17.5 7 Noroeste 22 Sudoeste 0 -- -- 74
2019-11-21 15:00:00 17.7 5 Noroeste 20 Noroeste 0 -- -- 74
2019-11-21 14:00:00 17 9 Noroeste 23 Oeste 0 -- -- 74
2019-11-21 13:00:00 16.7 9 Noroeste 22 Noroeste 0 -- -- 73
2019-11-21 12:00:00 17 8 Oeste 16 Noroeste 0 -- -- 71
2019-11-21 11:00:00 16.2 6 Noroeste 23 Noroeste 0 -- -- 80
2019-11-21 10:00:00 15 10 Oeste 25 Oeste 0 -- -- 92
2019-11-21 09:00:00 12.9 10 Oeste 23 Noroeste 0.2 -- -- 100
2019-11-21 08:00:00 12.1 7 Noroeste 21 Noroeste 0 -- -- 100
2019-11-21 07:00:00 -- -- -- -- -- -- -- -- --
2019-11-21 06:00:00 -- -- -- -- -- -- -- -- --
2019-11-21 05:00:00 -- -- -- -- -- -- -- -- --
2019-11-21 04:00:00 -- -- -- -- -- -- -- -- --
2019-11-21 03:00:00 -- -- -- -- -- -- -- -- --
2019-11-21 02:00:00 -- -- -- -- -- -- -- -- --
2019-11-21 01:00:00 -- -- -- -- -- -- -- -- --
2019-11-21 00:00:00 -- -- -- -- -- -- -- -- --
2019-11-20 23:00:00 -- -- -- -- -- -- -- -- --
2019-11-20 22:00:00 -- -- -- -- -- -- -- -- --
2019-11-20 21:00:00 -- -- -- -- -- -- -- -- --
2019-11-20 20:00:00 -- -- -- -- -- -- -- -- --
2019-11-20 19:00:00 -- -- -- -- -- -- -- -- --
2019-11-20 18:00:00 13.2 6 Noroeste 27 Noroeste 0 -- -- 99
2019-11-20 17:00:00 13.9 8 Noroeste 20 Noroeste 0 -- -- 97
2019-11-20 16:00:00 14.7 7 Noroeste 23 Noroeste 0 -- -- 91
2019-11-20 15:00:00 15.4 8 Noroeste 25 Noroeste 0 -- -- 86
2019-11-20 14:00:00 17.2 8 Noroeste 20 Oeste 0 -- -- 74
2019-11-20 13:00:00 17.7 6 Oeste 20 Sudoeste 0 -- -- 68
2019-11-20 12:00:00 18.2 4 Oeste 14 Oeste 0 -- -- 65
2019-11-20 11:00:00 17.8 6 Oeste 15 Oeste 0 -- -- 68
2019-11-20 10:00:00 17.2 4 Oeste 13 Sudoeste 0 -- -- 73
2019-11-20 09:00:00 15.4 5 Oeste 16 Sudoeste 0 -- -- 83
2019-11-20 08:00:00 12.2 8 Noroeste 18 Oeste 0 -- -- 98
2019-11-20 07:00:00 11.2 8 Noroeste 23 Noroeste 0 -- -- 100
2019-11-20 06:00:00 11.7 6 Noroeste 22 Oeste 0 -- -- 100
2019-11-20 05:00:00 11.8 5 Noroeste 22 Noroeste 0 -- -- 100
2019-11-20 04:00:00 11.8 8 Noroeste 20 Oeste 0 -- -- 100
2019-11-20 03:00:00 11.6 5 Noroeste 21 Noroeste 0 -- -- 100
2019-11-20 02:00:00 11.2 9 Noroeste 30 Noroeste 0 -- -- 99
2019-11-20 01:00:00 11.1 14 Noroeste 28 Oeste 0 -- -- 96
2019-11-20 00:00:00 10.9 13 Noroeste 29 Noroeste 0 -- -- 94
2019-11-19 23:00:00 10.7 13 Noroeste 29 Noroeste 0 -- -- 99
2019-11-19 22:00:00 11.2 12 Noroeste 25 Noroeste 0 -- -- 100
2019-11-19 21:00:00 11.3 9 Noroeste 21 Noroeste 0 -- -- 100
2019-11-19 20:00:00 11.4 7 Noroeste 20 Noroeste 0 -- -- 99
2019-11-19 19:00:00 11.5 9 Noroeste 20 Noroeste 0 -- -- 98
2019-11-19 18:00:00 12.2 8 Noroeste 21 Noroeste 0 -- -- 96
2019-11-19 17:00:00 12.8 9 Noroeste 21 Norte 0 -- -- 94
2019-11-19 16:00:00 13.7 10 Noroeste 25 Noroeste 0 -- -- 90
2019-11-19 15:00:00 14.7 14 Noroeste 28 Noroeste 0 -- -- 85
2019-11-19 14:00:00 15.3 12 Noroeste 27 Noroeste 0 -- -- 83
2019-11-19 13:00:00 15.3 13 Noroeste 30 Oeste 0 -- -- 83
2019-11-19 12:00:00 15.4 11 Noroeste 33 Noroeste 0 -- -- 80
2019-11-19 11:00:00 14.7 12 Noroeste 32 Noroeste 0 -- -- 89
2019-11-19 10:00:00 13.9 15 Noroeste 28 Noroeste 0 -- -- 92
2019-11-19 09:00:00 12.7 19 Noroeste 29 Noroeste 0 -- -- 97
2019-11-19 08:00:00 11.6 20 Noroeste 30 Noroeste 0.2 -- -- 100
2019-11-19 07:00:00 11 20 Noroeste 30 Noroeste 0 -- -- 100
2019-11-19 06:00:00 10.7 15 Noroeste 32 Noroeste 0 -- -- 100
2019-11-19 05:00:00 11.3 21 Noroeste 32 Noroeste 0 -- -- 100
2019-11-19 04:00:00 11.6 19 Noroeste 30 Noroeste 0 -- -- 100
2019-11-19 03:00:00 11.1 18 Noroeste 27 Noroeste 0 -- -- 100
2019-11-19 02:00:00 11.8 6 Noroeste 30 Noroeste 0.2 -- -- 100
2019-11-19 01:00:00 11.9 12 Noroeste 30 Norte 0 -- -- 100
2019-11-19 00:00:00 11.6 15 Noroeste 37 Norte 0 -- -- 100
2019-11-18 23:00:00 11.7 7 Noroeste 29 Noroeste 0 -- -- 100
2019-11-18 22:00:00 11.7 6 Norte 34 Noroeste 0 -- -- 100
2019-11-18 21:00:00 11.7 6 Noroeste 28 Noroeste 0 -- -- 100
2019-11-18 20:00:00 11.6 4 Sur 21 Oeste 0 -- -- 100
2019-11-18 19:00:00 11.5 7 Noroeste 28 Norte 0.2 -- -- 100
2019-11-18 18:00:00 11.7 8 Noroeste 28 Noroeste 0.6 -- -- 99
2019-11-18 17:00:00 12.1 5 Noroeste 22 Norte 0.2 -- -- 99
2019-11-18 16:00:00 12.2 6 Norte 21 Nordeste 0.8 -- -- 98
2019-11-18 15:00:00 12.5 7 Nordeste 22 Nordeste 0.4 -- -- 97
2019-11-18 14:00:00 14.1 5 Este 20 Este 0 -- -- 88
2019-11-18 13:00:00 15 12 Este 27 Este 0 -- -- 79
2019-11-18 12:00:00 17.5 11 Sudeste 22 Sudeste 0 -- -- 75
2019-11-18 11:00:00 13.8 5 Sudeste 18 Sudeste 0 -- -- 87
2019-11-18 10:00:00 13.9 8 Sudeste 21 Nordeste 0.2 -- -- 88
2019-11-18 09:00:00 11.9 10 Este 28 Este 0 -- -- 93
2019-11-18 08:00:00 11.2 9 Este 36 Nordeste 0 -- -- 98
2019-11-18 07:00:00 11 10 Nordeste 39 Nordeste 0 -- -- 98
2019-11-18 06:00:00 11 8 Nordeste 27 Nordeste 0 -- -- 95
2019-11-18 05:00:00 10.9 9 Este 32 Nordeste 0 -- -- 90
2019-11-18 04:00:00 11.1 11 Nordeste 32 Nordeste 0 -- -- 95
2019-11-18 03:00:00 11 8 Nordeste 33 Este 0 -- -- 97
2019-11-18 02:00:00 10.8 14 Este 30 Este 0 -- -- 96
2019-11-18 01:00:00 11 7 Este 31 Norte 0 -- -- 96
2019-11-18 00:00:00 10.7 11 Nordeste 35 Este 0 -- -- 91
2019-11-17 23:00:00 10.6 14 Nordeste 35 Este 0 -- -- 93
2019-11-17 22:00:00 10.5 12 Nordeste 33 Norte 0 -- -- 96
2019-11-17 21:00:00 10.2 11 Nordeste 35 Este 0 -- -- 97
2019-11-17 20:00:00 10.2 11 Norte 35 Nordeste 0.6 -- -- 99
2019-11-17 19:00:00 10.9 12 Nordeste 33 Este 0.6 -- -- 100
2019-11-17 18:00:00 10.9 10 Norte 37 Este 0 -- -- 99
2019-11-17 17:00:00 10.9 12 Norte 38 Nordeste 0 -- -- 97
2019-11-17 16:00:00 11 12 Nordeste 37 Este 0.2 -- -- 99
2019-11-17 15:00:00 10.9 11 Nordeste 37 Este 1 -- -- 100
2019-11-17 14:00:00 11.1 12 Este 28 Nordeste 1.6 -- -- 98
2019-11-17 13:00:00 12.4 6 Sudeste 27 Este 0.4 -- -- 93
2019-11-17 12:00:00 13.2 6 Sudeste 31 Nordeste 0 -- -- 92
2019-11-17 11:00:00 11.9 7 Este 36 Nordeste 0 -- -- 97
2019-11-17 10:00:00 10.8 10 Nordeste 40 Norte 1.4 -- -- 100
2019-11-17 09:00:00 10.5 12 Nordeste 30 Este 1.6 -- -- 100
2019-11-17 08:00:00 10.3 13 Nordeste 34 Este 0.4 -- -- 100
2019-11-17 07:00:00 10.7 7 Nordeste 37 Norte 1 -- -- 100
2019-11-17 06:00:00 10.3 13 Nordeste 39 Este 0.2 -- -- 100
2019-11-17 05:00:00 10.4 12 Nordeste 35 Nordeste 0.2 -- -- 100
2019-11-17 04:00:00 10.5 8 Nordeste 36 Nordeste 1 -- -- 100
2019-11-17 03:00:00 10.6 10 Este 32 Nordeste 0.8 -- -- 100
2019-11-17 02:00:00 10.7 12 Nordeste 32 Este 0.2 -- -- 100
2019-11-17 01:00:00 10.8 12 Norte 34 Nordeste 0 -- -- 100
2019-11-17 00:00:00 10.9 10 Nordeste 32 Nordeste 0 -- -- 100
2019-11-16 23:00:00 10.8 9 Noroeste 37 Nordeste 0.4 -- -- 99
2019-11-16 22:00:00 10.8 7 Norte 33 Noroeste 0.4 -- -- 99
2019-11-16 21:00:00 10.9 9 Norte 36 Noroeste 0 -- -- 97
2019-11-16 20:00:00 11 15 Norte 41 Oeste 0 -- -- 97
2019-11-16 19:00:00 11.3 13 Noroeste 43 Nordeste 0.2 -- -- 99
2019-11-16 18:00:00 11 12 Norte 33 Noroeste 0 -- -- 98
2019-11-16 17:00:00 11.3 11 Noroeste 32 Oeste 0 -- -- 95
2019-11-16 16:00:00 11.6 9 Norte 39 Oeste 0 -- -- 95
2019-11-16 15:00:00 11.4 13 Noroeste 36 Noroeste 0.8 -- -- 99
2019-11-16 14:00:00 11.7 8 Oeste 33 Noroeste 0.6 -- -- 97
2019-11-16 13:00:00 11.8 9 Sudoeste 61 Nordeste 0.2 -- -- 99
2019-11-16 12:00:00 13.5 13 Oeste 44 Noroeste 0 -- -- 82
2019-11-16 11:00:00 12.5 13 Norte 50 Noroeste 0 -- -- 84
2019-11-16 10:00:00 12.4 13 Noroeste 55 Norte 0 -- -- 80
2019-11-16 09:00:00 11 19 Norte 47 Norte 0.2 -- -- 87
2019-11-16 08:00:00 10.3 15 Noroeste 52 Oeste 0 -- -- 97
2019-11-16 07:00:00 9.7 16 Noroeste 47 Noroeste 0.4 -- -- 100
2019-11-16 06:00:00 10.6 12 Noroeste 44 Noroeste 0 -- -- 100
2019-11-16 05:00:00 10.3 13 Noroeste 36 Norte 0.2 -- -- 100
2019-11-16 04:00:00 10.2 7 Sudeste 44 Noroeste 0 -- -- 100
2019-11-16 03:00:00 10.4 13 Noroeste 37 Norte 0 -- -- 100
2019-11-16 02:00:00 10.6 12 Noroeste 36 Norte 2.8 -- -- 100
2019-11-16 01:00:00 10.8 12 Noroeste 43 Oeste 0.2 -- -- 100
2019-11-16 00:00:00 10.5 5 Sur 36 Oeste 0 -- -- 100
2019-11-15 23:00:00 10.5 9 Norte 32 Noroeste 0.2 -- -- 100
2019-11-15 22:00:00 10.9 12 Norte 46 Noroeste 3 -- -- 100
2019-11-15 21:00:00 10.8 10 Oeste 32 Oeste 0 -- -- 98
2019-11-15 20:00:00 10.7 9 Sudoeste 33 Noroeste 0 -- -- 99
2019-11-15 19:00:00 10.9 6 Sudoeste 28 Oeste 0 -- -- 99
2019-11-15 18:00:00 10.9 12 Oeste 43 Oeste 0 -- -- 99
2019-11-15 17:00:00 11.2 6 Norte 38 Norte 0 -- -- 96
2019-11-15 16:00:00 11.2 11 Noroeste 38 Nordeste 0 -- -- 99
2019-11-15 15:00:00 10.9 8 Noroeste 33 Norte 1.2 -- -- 100
2019-11-15 14:00:00 11.4 9 Oeste 51 Noroeste 2.8 -- -- 100
2019-11-15 13:00:00 11.6 10 Noroeste 37 Norte 5.8 -- -- 100
2019-11-15 12:00:00 11.7 9 Noroeste 37 Noroeste 5.6 -- -- 100
2019-11-15 11:00:00 11.8 15 Norte 38 Norte 1.4 -- -- 100
2019-11-15 10:00:00 11.9 13 Noroeste 40 Oeste 5.2 -- -- 100
2019-11-15 09:00:00 11.7 12 Norte 42 Oeste 2.8 -- -- 100
2019-11-15 08:00:00 11.5 12 Noroeste 43 Oeste 0 -- -- 100
2019-11-15 07:00:00 12.2 10 Noroeste 45 Noroeste 0 -- -- 100
2019-11-15 06:00:00 12 12 Norte 40 Noroeste 3 -- -- 100
2019-11-15 05:00:00 12.2 10 Oeste 39 Noroeste 0 -- -- 100
2019-11-15 04:00:00 11.9 9 Noroeste 32 Noroeste 0 -- -- 100
2019-11-15 03:00:00 11.8 6 Norte 30 Norte 0 -- -- 99
2019-11-15 02:00:00 11.3 10 Oeste 35 Noroeste 0 -- -- 100
2019-11-15 01:00:00 12.4 9 Oeste 46 Noroeste 0.2 -- -- 100
2019-11-15 00:00:00 11.7 13 Norte 44 Nordeste 0 -- -- 100
2019-11-14 23:00:00 12.2 19 Nordeste 50 Nordeste 1.4 -- -- 100
2019-11-14 22:00:00 12.3 15 Nordeste 39 Nordeste 0.2 -- -- 100
2019-11-14 21:00:00 12.1 17 Nordeste 44 Este 0 -- -- 100
2019-11-14 20:00:00 12.3 12 Norte 42 Sudeste 0.2 -- -- 100
2019-11-14 19:00:00 12.3 18 Nordeste 43 Este 3 -- -- 100
2019-11-14 18:00:00 12.9 11 Norte 46 Este 0.4 -- -- 100
2019-11-14 17:00:00 12.8 13 Nordeste 42 Nordeste 0.2 -- -- 99
2019-11-14 16:00:00 13 13 Nordeste 42 Sudeste 0 -- -- 99
2019-11-14 15:00:00 13.1 12 Nordeste 35 Nordeste 0 -- -- 97
2019-11-14 14:00:00 13.3 13 Nordeste 34 Este 0 -- -- 96
2019-11-14 13:00:00 13.1 10 Norte 36 Sudeste 0.8 -- -- 99
2019-11-14 12:00:00 12.8 11 Noroeste 31 Norte 0.4 -- -- 97
2019-11-14 11:00:00 13.7 6 Norte 24 Norte 0.2 -- -- 98
2019-11-14 10:00:00 13 10 Norte 30 Nordeste 0 -- -- 98
2019-11-14 09:00:00 13.1 9 Norte 34 Norte 0 -- -- 99
2019-11-14 08:00:00 12.7 15 Norte 33 Este 0 -- -- 99
2019-11-14 07:00:00 12.7 10 Nordeste 40 Nordeste 0 -- -- 99
2019-11-14 06:00:00 12.6 9 Norte 33 Nordeste 0 -- -- 99
2019-11-14 05:00:00 12.5 14 Norte 44 Norte 0 -- -- 92
2019-11-14 04:00:00 12.5 14 Noroeste 37 Norte 0 -- -- 96
2019-11-14 03:00:00 12.5 10 Noroeste 41 Noroeste 0 -- -- 96
2019-11-14 02:00:00 12.2 13 Noroeste 35 Noroeste 0 -- -- 96
2019-11-14 01:00:00 12.6 10 Norte 38 Noroeste 0 -- -- 95
2019-11-14 00:00:00 12.3 15 Norte 46 Norte 0 -- -- 94
2019-11-13 23:00:00 12.4 29 Norte 50 Norte 0 -- -- 96
2019-11-13 22:00:00 12.2 24 Norte 49 Norte 0 -- -- 98
2019-11-13 21:00:00 12.1 31 Norte 55 Noroeste 0 -- -- 96
2019-11-13 20:00:00 12.3 30 Norte 53 Norte 0 -- -- 97
2019-11-13 19:00:00 12.3 22 Norte 50 Noroeste 0 -- -- 95
2019-11-13 18:00:00 12.5 18 Noroeste 51 Noroeste 0 -- -- 95
2019-11-13 17:00:00 13.2 19 Noroeste 56 Noroeste 0 -- -- 94
2019-11-13 16:00:00 13.6 21 Noroeste 50 Noroeste 0 -- -- 95
2019-11-13 15:00:00 13.5 22 Norte 46 Norte 0.2 -- -- 98
2019-11-13 14:00:00 14.1 19 Norte 47 Este 0 -- -- 94
2019-11-13 13:00:00 14.3 14 Norte 49 Nordeste 0 -- -- 94
2019-11-13 12:00:00 13.7 12 Norte 37 Nordeste 0 -- -- 98
2019-11-13 11:00:00 13.5 13 Nordeste 41 Nordeste 0 -- -- 98
2019-11-13 10:00:00 13.2 18 Norte 46 Nordeste 0 -- -- 98
2019-11-13 09:00:00 12.9 19 Nordeste 51 Nordeste 0 -- -- 99
2019-11-13 08:00:00 12.7 18 Nordeste 47 Nordeste 0 -- -- 100
2019-11-13 07:00:00 12.7 15 Norte 57 Norte 0 -- -- 100
2019-11-13 06:00:00 12.7 21 Norte 45 Nordeste 0 -- -- 99
2019-11-13 05:00:00 12.8 23 Norte 51 Nordeste 0 -- -- 99
2019-11-13 04:00:00 12.6 26 Norte 57 Nordeste 0 -- -- 98
2019-11-13 03:00:00 12.6 33 Nordeste 56 Nordeste 0 -- -- 89
2019-11-13 02:00:00 12.6 28 Nordeste 51 Nordeste 0 -- -- 96
2019-11-13 01:00:00 12.5 18 Nordeste 42 Nordeste 0 -- -- 100
2019-11-13 00:00:00 12.8 19 Nordeste 55 Nordeste 0 -- -- 100
2019-11-12 23:00:00 12.5 26 Norte 48 Norte 0 -- -- 100
2019-11-12 22:00:00 12.4 28 Norte 58 Noroeste 0 -- -- 100
2019-11-12 21:00:00 12.4 33 Noroeste 57 Noroeste 0 -- -- 100
2019-11-12 20:00:00 13.1 27 Norte 53 Norte 0 -- -- 100
2019-11-12 19:00:00 12.7 26 Noroeste 53 Noroeste 0.2 -- -- 100
2019-11-12 18:00:00 13.4 25 Noroeste 51 Noroeste 0.4 -- -- 100
2019-11-12 17:00:00 14.4 22 Noroeste 51 Noroeste 3.2 -- -- 100
2019-11-12 16:00:00 14.4 18 Noroeste 52 Noroeste 0 -- -- 100
2019-11-12 15:00:00 14.3 22 Noroeste 57 Noroeste 0.2 -- -- 100
2019-11-12 14:00:00 14.3 17 Norte 49 Noroeste 0.2 -- -- 100
2019-11-12 13:00:00 14.2 18 Norte 55 Noroeste 1 -- -- 100
2019-11-12 12:00:00 14.2 14 Noroeste 45 Noroeste 0.2 -- -- 100
2019-11-12 11:00:00 14 19 Norte 50 Noroeste 2 -- -- 100
2019-11-12 10:00:00 14.1 12 Noroeste 41 Noroeste 1.8 -- -- 100
2019-11-12 09:00:00 13.7 22 Norte 48 Norte 2.4 -- -- 100
2019-11-12 08:00:00 13.3 18 Noroeste 50 Noroeste 1.4 -- -- 100
2019-11-12 07:00:00 13.1 29 Noroeste 63 Noroeste 0.2 -- -- 100
2019-11-12 06:00:00 12.9 32 Noroeste 64 Noroeste 0.2 -- -- 100
2019-11-12 05:00:00 12.9 26 Noroeste 65 Noroeste 0.2 -- -- 100
2019-11-12 04:00:00 12.5 29 Noroeste 66 Norte 0 -- -- 100
2019-11-12 03:00:00 12.3 33 Noroeste 59 Norte 0.2 -- -- 100
2019-11-12 02:00:00 12.6 31 Noroeste 62 Oeste 0.2 -- -- 100
2019-11-12 01:00:00 13.3 24 Noroeste 63 Norte 0.2 -- -- 100
2019-11-12 00:00:00 12.6 35 Noroeste 62 Noroeste 0.2 -- -- 100
2019-11-11 23:00:00 12.8 32 Noroeste 69 Norte 0.2 -- -- 100
2019-11-11 22:00:00 13.1 27 Noroeste 61 Noroeste 0.4 -- -- 100
2019-11-11 21:00:00 12.7 28 Noroeste 55 Noroeste 0.2 -- -- 100
2019-11-11 20:00:00 13 27 Noroeste 59 Noroeste 0.4 -- -- 100
2019-11-11 19:00:00 13 28 Noroeste 60 Noroeste 0.6 -- -- 100
2019-11-11 18:00:00 13 24 Norte 54 Noroeste 1.2 -- -- 100
2019-11-11 17:00:00 13 20 Norte 56 Noroeste 1.6 -- -- 100
2019-11-11 16:00:00 13.1 21 Noroeste 64 Noroeste 0.2 -- -- 100
2019-11-11 15:00:00 13.5 21 Noroeste 60 Noroeste 0 -- -- 98
2019-11-11 14:00:00 13.2 18 Noroeste 43 Noroeste 0.2 -- -- 99
2019-11-11 13:00:00 13.5 21 Noroeste 52 Norte 0 -- -- 96
2019-11-11 12:00:00 14.8 17 Norte 39 Norte 0 -- -- 87
2019-11-11 11:00:00 14.3 12 Norte 39 Noroeste 0 -- -- 90
2019-11-11 10:00:00 14 10 Noroeste 37 Este 0 -- -- 94
2019-11-11 09:00:00 12.7 9 Nordeste 46 Norte 0.2 -- -- 98
2019-11-11 08:00:00 12.3 17 Norte 51 Este 0 -- -- 96
2019-11-11 07:00:00 12 17 Norte 43 Nordeste 0 -- -- 96
2019-11-11 06:00:00 12 19 Nordeste 53 Este 0 -- -- 95
2019-11-11 05:00:00 12 20 Nordeste 50 Nordeste 0 -- -- 96
2019-11-11 04:00:00 12 13 Norte 49 Este 0 -- -- 94
2019-11-11 03:00:00 12.1 12 Nordeste 37 Este 0 -- -- 99
2019-11-11 02:00:00 12.2 22 Nordeste 50 Nordeste 0.2 -- -- 93
2019-11-11 01:00:00 12 15 Nordeste 39 Nordeste 0 -- -- 95
2019-11-11 00:00:00 12.4 10 Norte 42 Este 0 -- -- 99